Time;durP1;ratioP1;P1;durP2;ratioP2;P2;SDS_P1;SDS_P2;PMS_P1;PMS_P2;Temp;Humidity;BMP_temperature;BMP_pressure;BME280_temperature;BME280_humidity;BME280_pressure;Samples;Min_cycle;Max_cycle;Signal;HPM_P1;HPM_P2
2021/01/12 00:00:10;;;;;;;26.27;19.77;;;;;;;;;;5004049;28;20037;-67
2021/01/12 00:02:36;;;;;;;30.23;19.05;;;;;;;;;;5001232;28;20038;-67
2021/01/12 00:05:01;;;;;;;28.73;19.67;;;;;;;;;;5003038;28;20048;-68
2021/01/12 00:07:27;;;;;;;28.83;20.13;;;;;;;;;;5001344;28;20474;-68
2021/01/12 00:09:52;;;;;;;31.30;21.17;;;;;;;;;;5003999;28;20172;-68
2021/01/12 00:12:18;;;;;;;29.13;20.65;;;;;;;;;;4999378;28;20127;-67
2021/01/12 00:14:44;;;;;;;25.33;18.00;;;;;;;;;;5001741;28;20071;-68
2021/01/12 00:17:09;;;;;;;29.92;19.63;;;;;;;;;;4994927;28;20107;-68
2021/01/12 00:19:36;;;;;;;30.23;19.42;;;;;;;;;;4997618;28;20105;-68
2021/01/12 00:22:04;;;;;;;29.10;19.42;;;;;;;;;;5004084;28;20060;-67
2021/01/12 00:24:30;;;;;;;30.85;19.60;;;;;;;;;;5004922;28;20358;-67
2021/01/12 00:26:55;;;;;;;28.00;19.25;;;;;;;;;;5004030;28;20030;-68
2021/01/12 00:29:20;;;;;;;28.60;20.75;;;;;;;;;;4998852;28;20037;-67
2021/01/12 00:31:46;;;;;;;31.00;18.92;;;;;;;;;;5005588;28;20026;-67
2021/01/12 00:34:12;;;;;;;27.52;19.77;;;;;;;;;;5005896;28;20334;-68
2021/01/12 00:36:45;;;;;;;27.85;19.90;;;;;;;;;;5005457;28;20034;-67
2021/01/12 00:39:11;;;;;;;28.13;19.42;;;;;;;;;;5002539;28;20034;-67
2021/01/12 00:41:36;;;;;;;26.48;18.63;;;;;;;;;;5005191;28;20040;-68
2021/01/12 00:44:04;;;;;;;25.20;18.23;;;;;;;;;;5005447;28;20034;-68
2021/01/12 00:46:29;;;;;;;27.58;18.83;;;;;;;;;;5004925;28;20587;-68
2021/01/12 00:48:55;;;;;;;26.58;19.13;;;;;;;;;;5002690;28;20034;-68
2021/01/12 00:51:20;;;;;;;26.20;19.13;;;;;;;;;;5005719;28;20038;-68
2021/01/12 00:53:46;;;;;;;27.13;19.55;;;;;;;;;;5006212;28;20130;-68
2021/01/12 00:56:15;;;;;;;29.80;19.88;;;;;;;;;;5004924;28;20593;-67
2021/01/12 00:58:40;;;;;;;24.70;18.63;;;;;;;;;;5004546;28;20440;-67
2021/01/12 01:01:06;;;;;;;26.52;20.08;;;;;;;;;;5005713;28;20065;-68
2021/01/12 01:03:32;;;;;;;28.13;19.55;;;;;;;;;;5004834;28;20393;-68
2021/01/12 01:05:57;;;;;;;27.63;20.00;;;;;;;;;;5003663;28;20029;-68
2021/01/12 01:08:23;;;;;;;30.08;20.38;;;;;;;;;;5003713;28;20034;-68
2021/01/12 01:10:49;;;;;;;27.10;19.00;;;;;;;;;;5006259;28;20049;-68
2021/01/12 01:13:14;;;;;;;26.70;20.02;;;;;;;;;;5002967;28;20453;-68
2021/01/12 01:15:40;;;;;;;27.85;18.48;;;;;;;;;;5003803;28;20093;-68
2021/01/12 01:18:05;;;;;;;23.90;18.42;;;;;;;;;;5004590;28;20036;-68
2021/01/12 01:20:30;;;;;;;30.95;20.13;;;;;;;;;;5003137;28;20456;-68
2021/01/12 01:22:56;;;;;;;25.75;19.25;;;;;;;;;;5005659;28;20042;-68
2021/01/12 01:25:21;;;;;;;27.25;20.08;;;;;;;;;;5005249;28;20109;-67
2021/01/12 01:27:46;;;;;;;32.33;18.65;;;;;;;;;;5002346;28;20026;-68
2021/01/12 01:30:12;;;;;;;28.27;19.67;;;;;;;;;;5004728;28;20511;-67
2021/01/12 01:32:38;;;;;;;26.98;18.75;;;;;;;;;;5004711;28;20038;-68
2021/01/12 01:35:03;;;;;;;26.67;18.77;;;;;;;;;;5004156;28;20038;-68
2021/01/12 01:37:29;;;;;;;27.85;19.17;;;;;;;;;;5002440;28;20055;-68
2021/01/12 01:39:54;;;;;;;29.88;20.25;;;;;;;;;;5003676;28;20065;-67
2021/01/12 01:42:19;;;;;;;26.50;19.23;;;;;;;;;;5002646;28;20038;-69
2021/01/12 01:44:45;;;;;;;24.88;18.08;;;;;;;;;;5005446;28;20101;-68
2021/01/12 01:47:11;;;;;;;24.08;19.38;;;;;;;;;;5004198;28;20045;-69
2021/01/12 01:49:36;;;;;;;24.63;19.70;;;;;;;;;;5003151;28;20049;-68
2021/01/12 01:52:01;;;;;;;34.83;19.05;;;;;;;;;;5003463;28;20034;-68
2021/01/12 01:54:28;;;;;;;27.70;18.70;;;;;;;;;;5001608;28;20057;-67
2021/01/12 01:56:54;;;;;;;32.25;20.02;;;;;;;;;;5003606;28;20034;-68
2021/01/12 01:59:19;;;;;;;29.00;19.17;;;;;;;;;;4999243;28;20045;-68
2021/01/12 02:01:44;;;;;;;27.75;18.45;;;;;;;;;;5005141;28;20600;-68
2021/01/12 02:04:27;;;;;;;31.00;19.42;;;;;;;;;;5005448;28;20180;-68
2021/01/12 02:06:53;;;;;;;25.50;18.67;;;;;;;;;;5004509;28;20080;-67
2021/01/12 02:09:36;;;;;;;23.20;17.80;;;;;;;;;;5005314;28;20038;-68
2021/01/12 02:12:07;;;;;;;25.83;19.10;;;;;;;;;;5001728;28;20525;-67
2021/01/12 02:14:38;;;;;;;27.17;18.55;;;;;;;;;;5004631;28;20041;-67
2021/01/12 02:17:06;;;;;;;27.33;18.88;;;;;;;;;;5004054;28;20109;-68
2021/01/12 02:19:31;;;;;;;25.50;19.50;;;;;;;;;;5004315;28;20025;-67
2021/01/12 02:22:06;;;;;;;29.45;19.90;;;;;;;;;;5004150;28;20025;-67
2021/01/12 02:24:33;;;;;;;28.55;20.45;;;;;;;;;;5005385;28;20113;-67
2021/01/12 02:26:58;;;;;;;24.73;18.90;;;;;;;;;;5007350;28;20049;-66
2021/01/12 02:29:24;;;;;;;27.70;19.05;;;;;;;;;;5007370;28;20038;-67
2021/01/12 02:31:50;;;;;;;26.95;18.55;;;;;;;;;;5007403;28;20053;-67
2021/01/12 02:34:17;;;;;;;25.65;18.60;;;;;;;;;;5005795;28;20033;-67
2021/01/12 02:36:44;;;;;;;26.73;19.15;;;;;;;;;;5004074;28;20442;-68
2021/01/12 02:39:14;;;;;;;29.92;19.48;;;;;;;;;;5006962;28;20080;-68
2021/01/12 02:41:40;;;;;;;26.83;19.20;;;;;;;;;;5005870;28;20046;-68
2021/01/12 02:44:09;;;;;;;25.63;18.08;;;;;;;;;;5008670;28;20656;-68
2021/01/12 02:46:34;;;;;;;24.90;19.08;;;;;;;;;;5004954;28;20041;-67
2021/01/12 02:48:59;;;;;;;25.42;18.77;;;;;;;;;;5008736;28;20038;-67
2021/01/12 02:51:25;;;;;;;26.73;19.08;;;;;;;;;;5004633;28;20939;-68
2021/01/12 02:53:50;;;;;;;27.50;19.58;;;;;;;;;;5007865;28;20680;-67
2021/01/12 02:56:23;;;;;;;26.42;18.92;;;;;;;;;;5008084;28;20037;-68
2021/01/12 02:58:50;;;;;;;24.85;18.90;;;;;;;;;;5007115;28;20034;-68
2021/01/12 03:01:15;;;;;;;22.15;18.00;;;;;;;;;;5008548;28;20034;-68
2021/01/12 03:03:40;;;;;;;27.98;18.35;;;;;;;;;;5006613;28;20088;-67
2021/01/12 03:06:06;;;;;;;24.50;18.88;;;;;;;;;;5008336;28;20030;-67
2021/01/12 03:08:31;;;;;;;26.27;17.48;;;;;;;;;;5003234;28;20104;-67
2021/01/12 03:10:56;;;;;;;24.15;17.67;;;;;;;;;;5006834;28;20463;-69
2021/01/12 03:13:21;;;;;;;27.13;19.38;;;;;;;;;;5006746;28;20475;-68
2021/01/12 03:15:47;;;;;;;27.25;18.77;;;;;;;;;;5007738;28;20194;-68
2021/01/12 03:18:12;;;;;;;29.13;18.27;;;;;;;;;;5004900;28;20072;-68
2021/01/12 03:20:37;;;;;;;27.08;19.88;;;;;;;;;;5006788;28;20035;-67
2021/01/12 03:23:03;;;;;;;24.77;18.42;;;;;;;;;;5006967;28;20038;-67
2021/01/12 03:25:29;;;;;;;27.67;19.00;;;;;;;;;;5004556;28;20107;-67
2021/01/12 03:27:54;;;;;;;28.75;19.33;;;;;;;;;;5007483;28;20056;-67
2021/01/12 03:30:21;;;;;;;23.35;18.85;;;;;;;;;;5007144;28;20065;-67
2021/01/12 03:32:46;;;;;;;27.00;18.98;;;;;;;;;;5002267;28;20045;-68
2021/01/12 03:35:11;;;;;;;23.60;17.98;;;;;;;;;;5004178;28;20049;-67
2021/01/12 03:37:37;;;;;;;27.77;18.17;;;;;;;;;;5006660;28;20061;-68
2021/01/12 03:40:04;;;;;;;27.10;18.25;;;;;;;;;;5001845;28;20026;-67
2021/01/12 03:42:30;;;;;;;28.10;19.52;;;;;;;;;;5004870;28;20087;-67
2021/01/12 03:44:55;;;;;;;24.30;19.80;;;;;;;;;;5007411;28;20038;-67
2021/01/12 03:47:20;;;;;;;23.65;18.20;;;;;;;;;;5006569;28;20453;-67
2021/01/12 03:49:46;;;;;;;24.95;18.40;;;;;;;;;;5000208;28;20092;-68
2021/01/12 03:52:11;;;;;;;23.58;19.48;;;;;;;;;;5004260;28;20529;-67
2021/01/12 03:54:37;;;;;;;25.67;19.58;;;;;;;;;;5000769;28;20484;-67
2021/01/12 03:57:02;;;;;;;27.38;19.58;;;;;;;;;;5005463;28;20125;-68
2021/01/12 03:59:28;;;;;;;27.90;19.33;;;;;;;;;;5004190;28;20036;-68
2021/01/12 04:01:53;;;;;;;25.45;19.35;;;;;;;;;;5007306;28;20041;-68
2021/01/12 04:04:19;;;;;;;28.38;19.55;;;;;;;;;;5006157;28;20038;-68
2021/01/12 04:06:44;;;;;;;29.95;20.05;;;;;;;;;;5004083;28;20926;-68
2021/01/12 04:09:10;;;;;;;23.90;19.98;;;;;;;;;;5004995;28;20048;-68
2021/01/12 04:11:36;;;;;;;25.58;18.83;;;;;;;;;;5002611;28;20088;-68
2021/01/12 04:14:02;;;;;;;31.17;19.63;;;;;;;;;;5003472;28;20041;-68
2021/01/12 04:16:27;;;;;;;30.27;20.40;;;;;;;;;;5005539;28;20040;-68
2021/01/12 04:18:53;;;;;;;26.50;19.80;;;;;;;;;;5006861;28;20084;-68
2021/01/12 04:21:18;;;;;;;24.25;20.05;;;;;;;;;;5004953;28;20567;-68
2021/01/12 04:23:43;;;;;;;25.95;19.38;;;;;;;;;;5005781;28;20034;-68
2021/01/12 04:26:09;;;;;;;28.73;19.52;;;;;;;;;;5006158;28;20108;-68
2021/01/12 04:28:34;;;;;;;25.00;18.48;;;;;;;;;;5001455;28;20057;-68
2021/01/12 04:30:59;;;;;;;27.13;19.60;;;;;;;;;;5004242;28;20065;-67
2021/01/12 04:33:25;;;;;;;27.20;19.90;;;;;;;;;;5001120;28;20041;-68
2021/01/12 04:35:50;;;;;;;25.98;19.42;;;;;;;;;;5006457;28;20029;-67
2021/01/12 04:38:16;;;;;;;28.45;20.73;;;;;;;;;;5003796;28;20030;-67
2021/01/12 04:40:43;;;;;;;27.52;20.40;;;;;;;;;;5002527;28;20022;-68
2021/01/12 04:43:11;;;;;;;29.88;19.90;;;;;;;;;;5001409;28;20084;-68
2021/01/12 04:45:36;;;;;;;34.15;20.92;;;;;;;;;;5000852;28;20034;-68
2021/01/12 04:48:01;;;;;;;28.33;20.42;;;;;;;;;;5006296;28;20037;-68
2021/01/12 04:50:27;;;;;;;27.45;20.85;;;;;;;;;;4996396;28;20029;-68
2021/01/12 04:52:52;;;;;;;30.33;20.40;;;;;;;;;;5006060;28;20053;-68
2021/01/12 04:55:19;;;;;;;24.40;19.38;;;;;;;;;;5005629;28;20034;-68
2021/01/12 04:57:45;;;;;;;28.45;20.40;;;;;;;;;;5017534;28;20036;-68
2021/01/12 05:00:39;;;;;;;31.92;19.17;;;;;;;;;;5001848;28;20030;-68
2021/01/12 05:03:06;;;;;;;27.80;19.77;;;;;;;;;;5002277;28;20045;-68
2021/01/12 05:05:35;;;;;;;24.48;17.95;;;;;;;;;;5003596;28;20100;-68
2021/01/12 05:08:03;;;;;;;24.90;18.35;;;;;;;;;;5001937;28;20099;-68
2021/01/12 05:10:34;;;;;;;27.27;20.15;;;;;;;;;;5004750;28;20065;-67
2021/01/12 05:13:01;;;;;;;25.40;18.55;;;;;;;;;;5005650;28;20085;-68
2021/01/12 05:15:29;;;;;;;24.00;17.85;;;;;;;;;;5000560;28;20055;-67
2021/01/12 05:17:56;;;;;;;28.85;19.92;;;;;;;;;;5005721;28;20029;-67
2021/01/12 05:20:26;;;;;;;26.73;19.27;;;;;;;;;;5004951;28;20057;-67
2021/01/12 05:23:04;;;;;;;26.27;18.92;;;;;;;;;;5003636;28;20454;-67
2021/01/12 05:25:33;;;;;;;27.48;20.10;;;;;;;;;;5002605;28;20072;-67
2021/01/12 05:28:01;;;;;;;25.75;19.27;;;;;;;;;;5003599;28;20030;-67
2021/01/12 05:30:27;;;;;;;23.65;18.23;;;;;;;;;;5001910;28;20037;-67
2021/01/12 05:32:53;;;;;;;25.45;19.48;;;;;;;;;;5000673;28;20092;-67
2021/01/12 05:35:19;;;;;;;24.73;19.13;;;;;;;;;;5004188;28;20485;-67
2021/01/12 05:37:44;;;;;;;28.15;19.88;;;;;;;;;;5005272;28;20044;-67
2021/01/12 05:40:10;;;;;;;27.00;19.92;;;;;;;;;;5017011;28;20116;-67
2021/01/12 05:42:38;;;;;;;29.13;20.02;;;;;;;;;;5004451;28;20030;-67
2021/01/12 05:45:05;;;;;;;28.13;19.45;;;;;;;;;;5004380;28;20048;-67
2021/01/12 05:47:30;;;;;;;24.67;19.40;;;;;;;;;;5002921;28;20916;-66
2021/01/12 05:49:58;;;;;;;25.52;18.83;;;;;;;;;;5003636;28;20050;-67
2021/01/12 05:52:25;;;;;;;29.20;20.40;;;;;;;;;;5003623;28;20034;-67
2021/01/12 05:55:04;;;;;;;29.70;21.42;;;;;;;;;;5003526;28;20040;-67
2021/01/12 05:57:31;;;;;;;25.77;19.33;;;;;;;;;;4999176;28;20034;-67
2021/01/12 06:00:04;;;;;;;27.63;19.75;;;;;;;;;;5005866;28;20381;-66
2021/01/12 06:02:38;;;;;;;27.40;19.98;;;;;;;;;;5005085;28;20326;-67
2021/01/12 06:05:04;;;;;;;25.55;20.80;;;;;;;;;;5006118;28;20068;-67
2021/01/12 06:07:29;;;;;;;27.17;19.50;;;;;;;;;;5004996;28;20089;-66
2021/01/12 06:09:55;;;;;;;30.77;20.88;;;;;;;;;;5007470;28;20461;-67
2021/01/12 06:12:25;;;;;;;30.10;20.60;;;;;;;;;;5008291;28;20049;-67
2021/01/12 06:14:51;;;;;;;27.60;20.95;;;;;;;;;;5005719;28;20068;-66
2021/01/12 06:17:17;;;;;;;27.08;20.67;;;;;;;;;;5008916;28;20032;-67
2021/01/12 06:19:49;;;;;;;31.98;20.42;;;;;;;;;;5006883;28;20037;-66
2021/01/12 06:22:23;;;;;;;;;;;;;;;;;;5007219;28;20029;-67
2021/01/12 06:25:05;;;;;;;28.40;19.95;;;;;;;;;;5007483;28;19920;-67
2021/01/12 06:27:32;;;;;;;25.13;19.90;;;;;;;;;;5007518;28;20095;-67
2021/01/12 06:30:00;;;;;;;30.00;20.27;;;;;;;;;;5008457;28;20473;-67
2021/01/12 06:32:28;;;;;;;28.95;20.70;;;;;;;;;;5004078;28;20038;-67
2021/01/12 06:34:59;;;;;;;25.38;19.88;;;;;;;;;;5008532;28;20180;-67
2021/01/12 06:37:25;;;;;;;28.70;20.15;;;;;;;;;;5007412;28;20042;-68
2021/01/12 06:39:53;;;;;;;26.48;20.05;;;;;;;;;;5007564;28;20037;-68
2021/01/12 06:42:27;;;;;;;27.73;20.05;;;;;;;;;;5005659;28;20034;-67
2021/01/12 06:44:54;;;;;;;22.85;18.75;;;;;;;;;;5002751;28;20057;-69
2021/01/12 06:47:25;;;;;;;26.60;19.00;;;;;;;;;;5004042;28;20026;-69
2021/01/12 06:50:02;;;;;;;27.98;20.60;;;;;;;;;;5004372;28;20069;-66
2021/01/12 06:52:28;;;;;;;28.65;18.63;;;;;;;;;;5006151;28;20033;-67
2021/01/12 06:54:53;;;;;;;25.70;19.80;;;;;;;;;;5007915;28;20415;-66
2021/01/12 06:57:22;;;;;;;24.00;18.40;;;;;;;;;;5008297;28;20033;-67
2021/01/12 06:59:52;;;;;;;26.00;18.92;;;;;;;;;;5006417;28;20030;-67
2021/01/12 07:02:25;;;;;;;26.83;18.38;;;;;;;;;;5007934;28;20037;-67
2021/01/12 07:05:07;;;;;;;25.40;19.92;;;;;;;;;;5006325;28;20061;-66
2021/01/12 07:07:46;;;;;;;25.45;19.35;;;;;;;;;;5004174;28;20512;-68
2021/01/12 07:10:17;;;;;;;23.33;17.45;;;;;;;;;;5005979;28;20034;-68
2021/01/12 07:12:43;;;;;;;18.42;14.60;;;;;;;;;;5006563;28;20030;-68
2021/01/12 07:15:11;;;;;;;24.33;18.33;;;;;;;;;;5007597;28;20044;-68
2021/01/12 07:17:49;;;;;;;23.27;18.75;;;;;;;;;;5003974;28;20425;-67
2021/01/12 07:20:18;;;;;;;23.98;18.98;;;;;;;;;;5005104;28;20031;-68
2021/01/12 07:22:54;;;;;;;24.08;18.38;;;;;;;;;;5004993;28;20062;-68
2021/01/12 07:25:31;;;;;;;24.80;17.90;;;;;;;;;;5001024;28;20038;-68
2021/01/12 07:28:02;;;;;;;24.70;19.65;;;;;;;;;;5007835;28;20033;-68
2021/01/12 07:30:29;;;;;;;22.45;18.10;;;;;;;;;;5005282;28;20030;-68
2021/01/12 07:32:56;;;;;;;29.08;19.20;;;;;;;;;;5004643;28;20034;-68
2021/01/12 07:35:22;;;;;;;27.63;20.05;;;;;;;;;;5006728;28;20038;-68
2021/01/12 07:37:47;;;;;;;24.73;18.40;;;;;;;;;;4994090;28;20044;-69
2021/01/12 07:40:13;;;;;;;25.77;19.33;;;;;;;;;;5005864;28;20060;-69
2021/01/12 07:42:50;;;;;;;22.77;16.15;;;;;;;;;;5005672;28;20030;-67
2021/01/12 07:45:20;;;;;;;26.40;19.45;;;;;;;;;;5005893;28;20038;-68
2021/01/12 07:47:53;;;;;;;22.40;16.60;;;;;;;;;;5006275;28;20048;-68
2021/01/12 07:50:20;;;;;;;23.05;17.83;;;;;;;;;;5006727;28;20109;-67
2021/01/12 07:52:45;;;;;;;23.23;17.85;;;;;;;;;;5006951;28;20105;-68
2021/01/12 07:55:11;;;;;;;23.27;16.60;;;;;;;;;;5000071;28;20107;-66
2021/01/12 07:57:37;;;;;;;23.25;16.65;;;;;;;;;;5005968;28;20088;-67
2021/01/12 08:00:07;;;;;;;22.02;16.80;;;;;;;;;;5005574;28;20073;-67
2021/01/12 08:02:33;;;;;;;18.63;14.90;;;;;;;;;;5006025;28;20100;-67
2021/01/12 08:04:58;;;;;;;22.23;16.80;;;;;;;;;;5006735;28;20298;-67
2021/01/12 08:07:24;;;;;;;21.50;17.05;;;;;;;;;;5003595;28;20037;-66
2021/01/12 08:09:55;;;;;;;19.77;15.88;;;;;;;;;;5006170;28;20095;-66
2021/01/12 08:12:21;;;;;;;21.75;16.42;;;;;;;;;;5004681;28;20037;-67
2021/01/12 08:14:47;;;;;;;22.00;15.77;;;;;;;;;;5005224;28;20499;-67
2021/01/12 08:17:19;;;;;;;23.15;16.35;;;;;;;;;;5002199;28;20042;-67
2021/01/12 08:19:45;;;;;;;19.27;14.45;;;;;;;;;;5004974;28;20061;-68
2021/01/12 08:22:10;;;;;;;18.23;14.32;;;;;;;;;;5005336;28;20481;-68
2021/01/12 08:24:35;;;;;;;21.13;15.10;;;;;;;;;;5005255;28;20046;-68
2021/01/12 08:27:06;;;;;;;20.40;15.75;;;;;;;;;;5006922;28;20384;-69
2021/01/12 08:29:32;;;;;;;18.88;14.02;;;;;;;;;;5004737;28;20343;-69
2021/01/12 08:32:02;;;;;;;31.42;14.80;;;;;;;;;;5003196;28;20033;-69
2021/01/12 08:34:29;;;;;;;20.60;14.57;;;;;;;;;;5000402;28;20033;-69
2021/01/12 08:36:57;;;;;;;17.95;12.73;;;;;;;;;;5006686;28;20053;-70
2021/01/12 08:39:24;;;;;;;14.70;11.57;;;;;;;;;;5005707;28;20038;-69
2021/01/12 08:41:51;;;;;;;13.13;10.35;;;;;;;;;;5005532;28;20068;-70
2021/01/12 08:44:19;;;;;;;16.45;10.82;;;;;;;;;;5003113;28;20531;-69
2021/01/12 08:46:45;;;;;;;10.88;8.13;;;;;;;;;;5005782;28;20372;-70
2021/01/12 08:49:10;;;;;;;8.35;5.45;;;;;;;;;;5005641;28;20038;-70
2021/01/12 08:51:37;;;;;;;8.23;5.63;;;;;;;;;;4997597;28;20126;-70
2021/01/12 08:54:03;;;;;;;5.78;4.22;;;;;;;;;;5006252;28;20045;-70
2021/01/12 08:56:28;;;;;;;6.65;3.85;;;;;;;;;;5003692;28;20038;-72
2021/01/12 08:59:04;;;;;;;5.90;3.78;;;;;;;;;;5005004;28;20033;-72
2021/01/12 09:01:30;;;;;;;4.88;3.35;;;;;;;;;;5005908;28;20029;-70
2021/01/12 09:04:10;;;;;;;5.80;3.80;;;;;;;;;;5006050;28;20096;-70
2021/01/12 09:06:36;;;;;;;5.30;3.30;;;;;;;;;;5002474;28;20411;-66
2021/01/12 09:09:08;;;;;;;4.85;2.78;;;;;;;;;;5001325;28;20078;-65
2021/01/12 09:11:45;;;;;;;4.95;2.47;;;;;;;;;;5004064;28;20093;-65
2021/01/12 09:14:10;;;;;;;4.70;2.47;;;;;;;;;;5012068;28;20116;-64
2021/01/12 09:16:36;;;;;;;5.50;2.80;;;;;;;;;;4998066;28;20609;-64
2021/01/12 09:19:12;;;;;;;4.45;2.50;;;;;;;;;;4998615;28;20030;-64
2021/01/12 09:21:38;;;;;;;4.03;2.22;;;;;;;;;;4999701;28;20125;-64
2021/01/12 09:24:03;;;;;;;3.72;2.25;;;;;;;;;;5005096;28;20121;-65
2021/01/12 09:26:30;;;;;;;4.93;2.45;;;;;;;;;;5003821;28;20051;-66
2021/01/12 09:28:55;;;;;;;3.03;1.90;;;;;;;;;;5005483;28;20037;-66
2021/01/12 09:31:21;;;;;;;3.45;1.80;;;;;;;;;;5002920;28;20044;-65
2021/01/12 09:33:52;;;;;;;3.67;2.00;;;;;;;;;;5007898;28;20053;-64
2021/01/12 09:36:20;;;;;;;3.85;2.03;;;;;;;;;;4999831;28;20088;-64
2021/01/12 09:38:50;;;;;;;4.05;2.35;;;;;;;;;;5000357;28;20216;-64
2021/01/12 09:41:22;;;;;;;3.35;2.00;;;;;;;;;;5003594;28;20034;-64
2021/01/12 09:43:47;;;;;;;2.92;1.80;;;;;;;;;;5002285;28;20466;-63
2021/01/12 09:46:48;;;;;;;3.83;2.03;;;;;;;;;;4999245;28;20084;-61
2021/01/12 09:57:50;;;;;;;2.80;1.58;;;;;;;;;;4956958;28;20046;-62
2021/01/12 10:01:29;;;;;;;;;;;;;;;;;;;;;
2021/01/12 10:17:08;;;;;;;3.00;1.50;;;;;;;;;;4941803;28;20115;-61
2021/01/12 10:20:40;;;;;;;;;;;;;;;;;;;;;
2021/01/12 10:24:10;;;;;;;3.53;1.70;;;;;;;;;;4969728;28;20124;-61
2021/01/12 10:27:34;;;;;;;2.80;1.60;;;;;;;;;;4959724;28;20054;-61
2021/01/12 10:30:53;;;;;;;4.75;2.58;;;;;;;;;;4992041;28;20508;-61
2021/01/12 10:34:34;;;;;;;8.60;5.20;;;;;;;;;;4998732;28;20532;-60
2021/01/12 10:49:58;;;;;;;;;;;;;;;;;;;;;
2021/01/12 10:56:57;;;;;;;3.23;1.37;;;;;;;;;;4991583;28;20136;-61
2021/01/12 10:59:26;;;;;;;3.25;1.58;;;;;;;;;;4999223;28;20021;-61
2021/01/12 11:01:57;;;;;;;3.72;1.60;;;;;;;;;;5004812;28;20033;-60
2021/01/12 11:04:23;;;;;;;2.80;1.40;;;;;;;;;;5007108;28;20042;-60
2021/01/12 11:06:51;;;;;;;2.90;1.50;;;;;;;;;;5005360;28;20124;-60
2021/01/12 11:09:18;;;;;;;3.60;1.50;;;;;;;;;;5006714;28;20034;-60
2021/01/12 11:11:44;;;;;;;2.95;1.23;;;;;;;;;;5005203;28;20034;-61
2021/01/12 11:14:09;;;;;;;2.70;1.30;;;;;;;;;;5003418;28;20038;-60
2021/01/12 11:16:40;;;;;;;2.28;1.20;;;;;;;;;;5000894;28;20136;-60
2021/01/12 11:19:08;;;;;;;2.30;1.10;;;;;;;;;;5007523;28;20104;-60
2021/01/12 11:21:44;;;;;;;3.60;1.27;;;;;;;;;;5004161;28;20172;-60
2021/01/12 11:24:13;;;;;;;2.55;1.35;;;;;;;;;;5002652;28;20116;-60
2021/01/12 11:26:42;;;;;;;2.15;1.15;;;;;;;;;;5007647;28;20079;-61
2021/01/12 11:29:09;;;;;;;2.38;1.30;;;;;;;;;;5005177;28;20081;-60
2021/01/12 11:31:35;;;;;;;1.85;1.00;;;;;;;;;;5005835;28;20529;-61
2021/01/12 11:34:01;;;;;;;6.57;1.30;;;;;;;;;;5003623;28;20066;-61
2021/01/12 11:36:35;;;;;;;2.53;1.10;;;;;;;;;;5006209;28;20060;-61
2021/01/12 11:39:00;;;;;;;3.10;1.60;;;;;;;;;;5004205;28;20433;-60
2021/01/12 11:41:29;;;;;;;4.05;1.50;;;;;;;;;;5007163;28;20038;-61
2021/01/12 11:43:55;;;;;;;3.63;1.75;;;;;;;;;;4996879;28;20030;-61
2021/01/12 11:46:28;;;;;;;3.00;1.40;;;;;;;;;;5002717;28;20046;-61
2021/01/12 11:48:54;;;;;;;2.35;1.20;;;;;;;;;;5004285;28;20069;-60
2021/01/12 11:51:19;;;;;;;3.88;1.58;;;;;;;;;;5007007;28;20034;-60
2021/01/12 11:53:45;;;;;;;2.90;1.15;;;;;;;;;;4995670;28;20047;-61
2021/01/12 11:56:11;;;;;;;3.22;1.65;;;;;;;;;;5003197;28;20030;-61
2021/01/12 11:58:36;;;;;;;2.80;1.42;;;;;;;;;;5004285;28;20437;-61
2021/01/12 12:01:02;;;;;;;3.20;1.60;;;;;;;;;;5006216;28;20053;-61
2021/01/12 12:03:27;;;;;;;5.00;1.40;;;;;;;;;;5006407;28;20066;-61
2021/01/12 12:05:52;;;;;;;2.55;1.30;;;;;;;;;;5007604;28;20117;-61
2021/01/12 12:08:18;;;;;;;2.30;1.10;;;;;;;;;;5003857;28;20461;-62
2021/01/12 12:10:43;;;;;;;2.35;1.20;;;;;;;;;;5004864;28;20034;-62
2021/01/12 12:13:09;;;;;;;3.25;1.50;;;;;;;;;;5006036;28;20394;-62
2021/01/12 12:15:37;;;;;;;3.67;2.17;;;;;;;;;;5006073;28;20042;-62
2021/01/12 12:18:03;;;;;;;6.05;4.55;;;;;;;;;;5002373;28;20485;-62
2021/01/12 12:20:28;;;;;;;4.40;2.72;;;;;;;;;;5006119;28;20064;-62
2021/01/12 12:22:54;;;;;;;4.07;2.03;;;;;;;;;;5007654;28;20135;-62
2021/01/12 12:25:19;;;;;;;3.22;1.50;;;;;;;;;;5005281;28;20038;-62
2021/01/12 12:27:44;;;;;;;2.83;1.48;;;;;;;;;;5005718;28;20049;-62
2021/01/12 12:30:10;;;;;;;2.90;1.30;;;;;;;;;;5007352;28;20033;-62
2021/01/12 12:32:36;;;;;;;2.80;1.50;;;;;;;;;;5006875;28;20099;-62
2021/01/12 12:35:01;;;;;;;3.72;1.33;;;;;;;;;;5007220;28;20037;-62
2021/01/12 12:37:27;;;;;;;2.97;1.40;;;;;;;;;;5004700;28;20049;-62
2021/01/12 12:39:52;;;;;;;2.83;1.10;;;;;;;;;;5003167;28;20038;-62
2021/01/12 12:42:17;;;;;;;3.22;1.40;;;;;;;;;;5005690;28;20030;-62
2021/01/12 12:44:44;;;;;;;2.42;1.30;;;;;;;;;;5003625;28;20038;-62
2021/01/12 12:47:11;;;;;;;2.63;1.25;;;;;;;;;;5001511;28;20038;-63
2021/01/12 12:49:37;;;;;;;3.20;1.30;;;;;;;;;;5005941;28;20038;-63
2021/01/12 12:52:02;;;;;;;2.08;1.10;;;;;;;;;;5007576;28;20034;-63
2021/01/12 12:54:27;;;;;;;2.72;1.48;;;;;;;;;;4999201;28;20026;-63
2021/01/12 12:56:56;;;;;;;2.45;1.20;;;;;;;;;;5007171;28;20679;-63
2021/01/12 12:59:22;;;;;;;2.53;1.10;;;;;;;;;;5004297;28;20095;-63
2021/01/12 13:01:52;;;;;;;2.80;1.30;;;;;;;;;;4993251;28;20417;-63
2021/01/12 13:04:18;;;;;;;5.90;1.25;;;;;;;;;;5006459;28;20480;-63
2021/01/12 13:06:51;;;;;;;2.83;1.40;;;;;;;;;;5002783;28;20141;-63
2021/01/12 13:09:17;;;;;;;2.80;1.40;;;;;;;;;;5003295;28;20465;-63
2021/01/12 13:11:47;;;;;;;2.70;1.40;;;;;;;;;;5002051;28;20037;-64
2021/01/12 13:14:16;;;;;;;3.00;1.27;;;;;;;;;;4994524;28;20468;-62
2021/01/12 13:16:43;;;;;;;3.40;1.45;;;;;;;;;;5003466;28;20041;-62
2021/01/12 13:19:14;;;;;;;2.97;1.63;;;;;;;;;;5005419;28;20097;-62
2021/01/12 13:21:55;;;;;;;2.08;1.00;;;;;;;;;;5018244;28;20029;-62
2021/01/12 13:24:22;;;;;;;2.70;1.35;;;;;;;;;;5018156;28;20366;-62
2021/01/12 13:26:49;;;;;;;3.15;1.55;;;;;;;;;;5003759;28;20132;-62
2021/01/12 13:29:16;;;;;;;3.70;1.65;;;;;;;;;;4999765;28;20129;-62
2021/01/12 13:31:44;;;;;;;4.47;1.80;;;;;;;;;;4999726;28;20049;-63
2021/01/12 13:34:09;;;;;;;5.10;2.05;;;;;;;;;;5002856;28;20037;-63
2021/01/12 13:36:36;;;;;;;7.90;3.55;;;;;;;;;;5003705;28;20060;-64
2021/01/12 13:39:05;;;;;;;4.75;1.60;;;;;;;;;;5004403;28;20033;-63
2021/01/12 13:41:31;;;;;;;2.38;1.20;;;;;;;;;;5005331;28;20033;-64
2021/01/12 13:43:57;;;;;;;2.30;1.00;;;;;;;;;;5004167;28;20053;-64
2021/01/12 13:46:22;;;;;;;2.33;1.17;;;;;;;;;;5001257;28;20369;-63
2021/01/12 13:48:48;;;;;;;4.05;1.08;;;;;;;;;;5003062;28;20029;-63
2021/01/12 13:51:14;;;;;;;1.30;0.63;;;;;;;;;;5002330;28;20106;-63
2021/01/12 13:53:39;;;;;;;1.77;0.82;;;;;;;;;;5005289;28;20057;-63
2021/01/12 13:56:05;;;;;;;2.28;1.08;;;;;;;;;;5005295;28;20521;-64
2021/01/12 13:58:31;;;;;;;1.98;0.82;;;;;;;;;;5005388;28;20038;-63
2021/01/12 14:00:56;;;;;;;2.22;1.08;;;;;;;;;;5005748;28;20540;-63
2021/01/12 14:03:23;;;;;;;4.05;1.05;;;;;;;;;;5004461;28;20045;-63
2021/01/12 14:05:48;;;;;;;1.30;0.73;;;;;;;;;;5005201;28;20030;-63
2021/01/12 14:08:13;;;;;;;2.00;0.88;;;;;;;;;;5004354;28;20037;-64
2021/01/12 14:10:39;;;;;;;2.95;0.80;;;;;;;;;;5002947;28;20140;-63
2021/01/12 14:13:04;;;;;;;1.63;0.68;;;;;;;;;;5003447;28;20029;-64
2021/01/12 14:15:29;;;;;;;1.27;0.68;;;;;;;;;;5003232;28;20060;-64
2021/01/12 14:17:59;;;;;;;3.53;0.63;;;;;;;;;;5003447;28;20069;-64
2021/01/12 14:20:26;;;;;;;2.17;0.90;;;;;;;;;;5005321;28;20123;-64
2021/01/12 14:22:54;;;;;;;1.90;1.05;;;;;;;;;;5008864;28;20064;-64
2021/01/12 14:25:20;;;;;;;2.83;0.90;;;;;;;;;;5004244;28;20041;-64
2021/01/12 14:27:46;;;;;;;2.33;0.85;;;;;;;;;;5007348;28;20038;-64
2021/01/12 14:30:13;;;;;;;2.28;1.10;;;;;;;;;;5008420;28;20066;-64
2021/01/12 14:32:39;;;;;;;1.35;0.70;;;;;;;;;;5009089;28;20030;-64
2021/01/12 14:35:06;;;;;;;2.60;0.93;;;;;;;;;;5009712;28;20026;-64
2021/01/12 14:37:39;;;;;;;1.80;0.95;;;;;;;;;;5005011;28;20045;-64
2021/01/12 14:40:10;;;;;;;1.50;0.80;;;;;;;;;;5009688;28;20053;-64
2021/01/12 14:42:36;;;;;;;1.75;0.75;;;;;;;;;;5008080;28;20096;-64
2021/01/12 14:45:02;;;;;;;1.50;0.70;;;;;;;;;;5006990;28;20532;-64
2021/01/12 14:47:28;;;;;;;1.40;0.70;;;;;;;;;;5004788;28;20030;-64
2021/01/12 14:49:54;;;;;;;1.35;0.68;;;;;;;;;;5009465;28;20070;-65
2021/01/12 14:52:19;;;;;;;1.80;0.80;;;;;;;;;;5004863;28;20035;-65
2021/01/12 14:54:45;;;;;;;2.65;1.20;;;;;;;;;;5003378;28;20038;-64
2021/01/12 14:57:10;;;;;;;1.65;0.80;;;;;;;;;;5006589;28;20052;-65
2021/01/12 14:59:39;;;;;;;4.00;1.20;;;;;;;;;;5006923;28;20032;-64
2021/01/12 15:02:05;;;;;;;2.33;1.10;;;;;;;;;;5005272;28;20355;-64
2021/01/12 15:04:31;;;;;;;2.10;0.88;;;;;;;;;;5008447;28;20487;-65
2021/01/12 15:06:57;;;;;;;1.52;0.80;;;;;;;;;;5008693;28;20029;-64
2021/01/12 15:09:22;;;;;;;1.40;0.80;;;;;;;;;;5008790;28;20037;-64
2021/01/12 15:11:48;;;;;;;2.70;1.20;;;;;;;;;;5004612;28;20034;-65
2021/01/12 15:14:13;;;;;;;2.60;0.88;;;;;;;;;;5008298;28;20064;-65
2021/01/12 15:16:39;;;;;;;2.67;1.05;;;;;;;;;;5007645;28;20030;-65